Hlavní strana
METAR-TAF:

METAR-TAF

Letiště :

Béjaïa, Alžírsko

zeměpisná šířka: 36-43N, zeměpisná délka: 005-04E, výška: 2 m

Aktuální stav počasí

Zpráva byla vytvořena před 50 minutami, v 04:00 UTC
Jihozápadní vítr 12 kt
Teplota 10°C
Vlhkost vzduchu 62%
Tlak 1021 hPa
Viditelnost 10 km a více
Žádná oblačnost pod 1500 m, nevyskytují se cumulonimby.

METAR: DAAE 250400Z 23012KT CAVOK 10/03 Q1021

Čas: 05:50 (04:50 UTC)

Předpověď počasí

Zpráva byla vytvořena před 5 hodinami a 50 minutami, v 23:00 UTC
Předpověď platná od 25 v 00 UTC do 25 v 24 UTC
Západojihozápadní vítr 8 kt
Viditelnost: 8000 m
Skoro jasno ve výšce 2000 ft
Pravděpodobnost 30% :
Dočasný
od 25 v 00 UTC do 25 v 08 UTC
Viditelnost: 2000 m
Polojasno ve výšce 800 ft
kouřmo
Změna
od 25 v 08 UTC do 25 v 10 UTC
Jižní vítr 14 kt
Změna
od 25 v 18 UTC do 25 v 20 UTC
Západní vítr 8 kt

TAF: DAAE 242300Z 2500/2524 24008KT 8000 FEW020 PROB30 TEMPO 2500/2508 2000 BR SCT008 BECMG 2508/2510 19014KT BECMG 2518/2520 26008KT

Stav a předpovědi počasí z více než 4 000 letišť (zprávy METAR a TAF).

Červené a žluté tečky na mapě představují dostupné meteorologické stanice.

Když kurzor umístíte na tečku, zobrazí se název stanice.

Pak kliknutím zobrazíte stav a předpověď počasí.

Chcete-li změnit mapu, kliknutím na zelené tlačítko se znaménkem +mapu přiblížíte, kliknutím na zelené tlačítko se znaménkem – mapu oddálíte a kliknutím na zelené šipky přejdete na sousední mapy.


METAR-TAF: